sensor_id;sensor_type;location;lat;lon;timestamp;P1;durP1;ratioP1;P2;durP2;ratioP2
71366;SDS011;60030;52.274;8.040;2023-05-09T00:01:49;7.20;;;5.40;;
71366;SDS011;60030;52.274;8.040;2023-05-09T00:04:18;6.70;;;5.30;;
71366;SDS011;60030;52.274;8.040;2023-05-09T00:06:47;6.67;;;6.00;;
71366;SDS011;60030;52.274;8.040;2023-05-09T00:09:14;7.93;;;6.33;;
71366;SDS011;60030;52.274;8.040;2023-05-09T00:11:41;6.63;;;5.30;;
71366;SDS011;60030;52.274;8.040;2023-05-09T00:14:09;6.67;;;5.67;;
71366;SDS011;60030;52.274;8.040;2023-05-09T00:16:36;7.03;;;6.07;;
71366;SDS011;60030;52.274;8.040;2023-05-09T00:19:04;6.37;;;5.77;;
71366;SDS011;60030;52.274;8.040;2023-05-09T00:21:32;6.40;;;5.73;;
71366;SDS011;60030;52.274;8.040;2023-05-09T00:24:01;6.50;;;5.90;;
71366;SDS011;60030;52.274;8.040;2023-05-09T00:26:28;6.33;;;5.70;;
71366;SDS011;60030;52.274;8.040;2023-05-09T00:28:55;6.83;;;5.73;;
71366;SDS011;60030;52.274;8.040;2023-05-09T00:31:23;6.27;;;5.67;;
71366;SDS011;60030;52.274;8.040;2023-05-09T00:33:52;6.40;;;5.60;;
71366;SDS011;60030;52.274;8.040;2023-05-09T00:36:20;6.67;;;5.90;;
71366;SDS011;60030;52.274;8.040;2023-05-09T00:38:48;6.83;;;5.73;;
71366;SDS011;60030;52.274;8.040;2023-05-09T00:41:16;6.60;;;5.90;;
71366;SDS011;60030;52.274;8.040;2023-05-09T00:43:44;6.70;;;6.07;;
71366;SDS011;60030;52.274;8.040;2023-05-09T00:46:11;6.80;;;5.57;;
71366;SDS011;60030;52.274;8.040;2023-05-09T00:48:39;7.60;;;6.07;;
71366;SDS011;60030;52.274;8.040;2023-05-09T00:51:06;6.43;;;5.63;;
71366;SDS011;60030;52.274;8.040;2023-05-09T00:53:34;6.93;;;5.97;;
71366;SDS011;60030;52.274;8.040;2023-05-09T00:56:02;7.53;;;6.20;;
71366;SDS011;60030;52.274;8.040;2023-05-09T00:58:32;10.13;;;7.13;;
71366;SDS011;60030;52.274;8.040;2023-05-09T01:00:59;7.60;;;6.80;;
71366;SDS011;60030;52.274;8.040;2023-05-09T01:03:28;9.03;;;6.67;;
71366;SDS011;60030;52.274;8.040;2023-05-09T01:05:59;8.33;;;7.43;;
71366;SDS011;60030;52.274;8.040;2023-05-09T01:08:36;8.87;;;7.40;;
71366;SDS011;60030;52.274;8.040;2023-05-09T01:11:11;8.00;;;7.20;;
71366;SDS011;60030;52.274;8.040;2023-05-09T01:13:48;10.43;;;7.50;;
71366;SDS011;60030;52.274;8.040;2023-05-09T01:16:25;9.83;;;6.83;;
71366;SDS011;60030;52.274;8.040;2023-05-09T01:18:59;7.70;;;6.97;;
71366;SDS011;60030;52.274;8.040;2023-05-09T01:21:34;8.80;;;7.43;;
71366;SDS011;60030;52.274;8.040;2023-05-09T01:27:11;9.13;;;7.77;;
71366;SDS011;60030;52.274;8.040;2023-05-09T01:29:48;8.63;;;7.73;;
71366;SDS011;60030;52.274;8.040;2023-05-09T01:32:22;9.10;;;7.37;;
71366;SDS011;60030;52.274;8.040;2023-05-09T01:34:52;8.67;;;7.73;;
71366;SDS011;60030;52.274;8.040;2023-05-09T01:37:22;8.90;;;7.90;;
71366;SDS011;60030;52.274;8.040;2023-05-09T01:39:56;10.43;;;8.13;;
71366;SDS011;60030;52.274;8.040;2023-05-09T01:42:26;9.97;;;7.47;;
71366;SDS011;60030;52.274;8.040;2023-05-09T01:45:01;8.90;;;7.67;;
71366;SDS011;60030;52.274;8.040;2023-05-09T01:47:31;8.33;;;7.40;;
71366;SDS011;60030;52.274;8.040;2023-05-09T01:50:00;9.20;;;8.17;;
71366;SDS011;60030;52.274;8.040;2023-05-09T01:52:29;9.27;;;8.20;;
71366;SDS011;60030;52.274;8.040;2023-05-09T01:54:57;9.93;;;8.90;;
71366;SDS011;60030;52.274;8.040;2023-05-09T01:57:26;9.47;;;7.70;;
71366;SDS011;60030;52.274;8.040;2023-05-09T01:59:55;9.83;;;8.33;;
71366;SDS011;60030;52.274;8.040;2023-05-09T02:02:25;11.10;;;8.07;;
71366;SDS011;60030;52.274;8.040;2023-05-09T02:04:53;9.03;;;8.13;;
71366;SDS011;60030;52.274;8.040;2023-05-09T02:07:22;10.47;;;8.40;;
71366;SDS011;60030;52.274;8.040;2023-05-09T02:09:54;11.13;;;8.67;;
71366;SDS011;60030;52.274;8.040;2023-05-09T02:12:23;9.90;;;8.60;;
71366;SDS011;60030;52.274;8.040;2023-05-09T02:14:51;11.03;;;8.57;;
71366;SDS011;60030;52.274;8.040;2023-05-09T02:17:19;9.17;;;8.00;;
71366;SDS011;60030;52.274;8.040;2023-05-09T02:19:47;9.63;;;8.03;;
71366;SDS011;60030;52.274;8.040;2023-05-09T02:22:15;11.73;;;8.57;;
71366;SDS011;60030;52.274;8.040;2023-05-09T02:24:42;13.40;;;8.30;;
71366;SDS011;60030;52.274;8.040;2023-05-09T02:27:10;9.87;;;8.30;;
71366;SDS011;60030;52.274;8.040;2023-05-09T02:29:39;12.57;;;8.90;;
71366;SDS011;60030;52.274;8.040;2023-05-09T02:32:10;10.13;;;8.43;;
71366;SDS011;60030;52.274;8.040;2023-05-09T02:34:41;10.67;;;8.53;;
71366;SDS011;60030;52.274;8.040;2023-05-09T02:37:10;9.33;;;8.27;;
71366;SDS011;60030;52.274;8.040;2023-05-09T02:39:39;9.10;;;8.20;;
71366;SDS011;60030;52.274;8.040;2023-05-09T02:42:07;10.57;;;8.37;;
71366;SDS011;60030;52.274;8.040;2023-05-09T02:44:36;9.17;;;8.17;;
71366;SDS011;60030;52.274;8.040;2023-05-09T02:47:04;10.00;;;7.93;;
71366;SDS011;60030;52.274;8.040;2023-05-09T02:49:33;9.03;;;8.10;;
71366;SDS011;60030;52.274;8.040;2023-05-09T02:52:03;10.73;;;8.30;;
71366;SDS011;60030;52.274;8.040;2023-05-09T02:54:32;11.70;;;8.90;;
71366;SDS011;60030;52.274;8.040;2023-05-09T02:56:59;11.47;;;8.63;;
71366;SDS011;60030;52.274;8.040;2023-05-09T02:59:27;9.10;;;8.17;;
71366;SDS011;60030;52.274;8.040;2023-05-09T03:01:58;11.97;;;8.40;;
71366;SDS011;60030;52.274;8.040;2023-05-09T03:04:26;10.17;;;8.10;;
71366;SDS011;60030;52.274;8.040;2023-05-09T03:06:53;8.93;;;8.03;;
71366;SDS011;60030;52.274;8.040;2023-05-09T03:09:21;9.47;;;8.17;;
71366;SDS011;60030;52.274;8.040;2023-05-09T03:11:50;10.20;;;8.20;;
71366;SDS011;60030;52.274;8.040;2023-05-09T03:14:17;10.27;;;8.43;;
71366;SDS011;60030;52.274;8.040;2023-05-09T03:16:44;11.57;;;7.73;;
71366;SDS011;60030;52.274;8.040;2023-05-09T03:19:20;9.30;;;7.47;;
71366;SDS011;60030;52.274;8.040;2023-05-09T03:21:48;10.77;;;8.10;;
71366;SDS011;60030;52.274;8.040;2023-05-09T03:24:15;9.97;;;7.83;;
71366;SDS011;60030;52.274;8.040;2023-05-09T03:26:42;11.37;;;8.30;;
71366;SDS011;60030;52.274;8.040;2023-05-09T03:29:11;8.57;;;7.67;;
71366;SDS011;60030;52.274;8.040;2023-05-09T03:31:38;10.07;;;8.43;;
71366;SDS011;60030;52.274;8.040;2023-05-09T03:34:06;10.53;;;8.10;;
71366;SDS011;60030;52.274;8.040;2023-05-09T03:36:37;9.00;;;8.10;;
71366;SDS011;60030;52.274;8.040;2023-05-09T03:39:05;10.27;;;8.17;;
71366;SDS011;60030;52.274;8.040;2023-05-09T03:41:36;8.50;;;7.27;;
71366;SDS011;60030;52.274;8.040;2023-05-09T03:44:06;8.73;;;7.23;;
71366;SDS011;60030;52.274;8.040;2023-05-09T03:46:35;9.03;;;7.83;;
71366;SDS011;60030;52.274;8.040;2023-05-09T03:49:02;12.53;;;7.63;;
71366;SDS011;60030;52.274;8.040;2023-05-09T03:51:31;8.30;;;7.40;;
71366;SDS011;60030;52.274;8.040;2023-05-09T03:54:00;8.00;;;7.20;;
71366;SDS011;60030;52.274;8.040;2023-05-09T03:56:28;9.50;;;7.50;;
71366;SDS011;60030;52.274;8.040;2023-05-09T03:58:56;9.20;;;7.73;;
71366;SDS011;60030;52.274;8.040;2023-05-09T04:01:24;9.73;;;7.27;;
71366;SDS011;60030;52.274;8.040;2023-05-09T04:03:54;10.10;;;7.20;;
71366;SDS011;60030;52.274;8.040;2023-05-09T04:06:23;8.43;;;6.83;;
71366;SDS011;60030;52.274;8.040;2023-05-09T04:08:51;11.10;;;7.40;;
71366;SDS011;60030;52.274;8.040;2023-05-09T04:11:18;8.00;;;6.87;;
71366;SDS011;60030;52.274;8.040;2023-05-09T04:13:47;11.93;;;7.40;;
71366;SDS011;60030;52.274;8.040;2023-05-09T04:16:24;10.30;;;7.13;;
71366;SDS011;60030;52.274;8.040;2023-05-09T04:18:52;7.63;;;6.83;;
71366;SDS011;60030;52.274;8.040;2023-05-09T04:21:21;7.17;;;6.30;;
71366;SDS011;60030;52.274;8.040;2023-05-09T04:23:52;7.77;;;6.97;;
71366;SDS011;60030;52.274;8.040;2023-05-09T04:26:27;9.43;;;6.67;;
71366;SDS011;60030;52.274;8.040;2023-05-09T04:28:57;10.63;;;6.70;;
71366;SDS011;60030;52.274;8.040;2023-05-09T04:31:24;7.73;;;6.67;;
71366;SDS011;60030;52.274;8.040;2023-05-09T04:33:51;8.23;;;6.87;;
71366;SDS011;60030;52.274;8.040;2023-05-09T04:36:21;7.97;;;6.60;;
71366;SDS011;60030;52.274;8.040;2023-05-09T04:38:49;9.17;;;7.10;;
71366;SDS011;60030;52.274;8.040;2023-05-09T04:41:21;7.30;;;6.60;;
71366;SDS011;60030;52.274;8.040;2023-05-09T04:43:50;8.93;;;5.97;;
71366;SDS011;60030;52.274;8.040;2023-05-09T04:46:18;8.30;;;6.43;;
71366;SDS011;60030;52.274;8.040;2023-05-09T04:48:46;7.83;;;6.93;;
71366;SDS011;60030;52.274;8.040;2023-05-09T04:51:13;9.50;;;7.10;;
71366;SDS011;60030;52.274;8.040;2023-05-09T04:53:42;9.53;;;6.93;;
71366;SDS011;60030;52.274;8.040;2023-05-09T04:56:09;9.40;;;6.63;;
71366;SDS011;60030;52.274;8.040;2023-05-09T04:58:38;10.10;;;6.90;;
71366;SDS011;60030;52.274;8.040;2023-05-09T05:01:08;9.80;;;6.70;;
71366;SDS011;60030;52.274;8.040;2023-05-09T05:03:37;7.27;;;5.80;;
71366;SDS011;60030;52.274;8.040;2023-05-09T05:06:05;7.37;;;5.83;;
71366;SDS011;60030;52.274;8.040;2023-05-09T05:08:34;8.20;;;6.57;;
71366;SDS011;60030;52.274;8.040;2023-05-09T05:11:03;7.20;;;6.30;;
71366;SDS011;60030;52.274;8.040;2023-05-09T05:13:30;8.20;;;6.03;;
71366;SDS011;60030;52.274;8.040;2023-05-09T05:16:00;10.20;;;6.77;;
71366;SDS011;60030;52.274;8.040;2023-05-09T05:18:27;9.97;;;6.93;;
71366;SDS011;60030;52.274;8.040;2023-05-09T05:20:54;8.13;;;6.63;;
71366;SDS011;60030;52.274;8.040;2023-05-09T05:23:23;10.30;;;7.63;;
71366;SDS011;60030;52.274;8.040;2023-05-09T05:25:53;8.23;;;7.07;;
71366;SDS011;60030;52.274;8.040;2023-05-09T05:28:22;7.70;;;6.70;;
71366;SDS011;60030;52.274;8.040;2023-05-09T05:30:50;9.10;;;7.57;;
71366;SDS011;60030;52.274;8.040;2023-05-09T05:33:17;11.47;;;7.03;;
71366;SDS011;60030;52.274;8.040;2023-05-09T05:35:45;8.63;;;7.80;;
71366;SDS011;60030;52.274;8.040;2023-05-09T05:38:12;8.77;;;7.70;;
71366;SDS011;60030;52.274;8.040;2023-05-09T05:40:41;12.57;;;7.63;;
71366;SDS011;60030;52.274;8.040;2023-05-09T05:43:08;9.77;;;8.20;;
71366;SDS011;60030;52.274;8.040;2023-05-09T05:45:38;9.90;;;7.60;;
71366;SDS011;60030;52.274;8.040;2023-05-09T05:48:09;10.13;;;8.07;;
71366;SDS011;60030;52.274;8.040;2023-05-09T05:50:36;12.37;;;8.57;;
71366;SDS011;60030;52.274;8.040;2023-05-09T05:53:04;11.17;;;8.27;;
71366;SDS011;60030;52.274;8.040;2023-05-09T05:55:32;13.10;;;8.10;;
71366;SDS011;60030;52.274;8.040;2023-05-09T05:57:59;10.60;;;8.73;;
71366;SDS011;60030;52.274;8.040;2023-05-09T06:00:26;11.27;;;9.17;;
71366;SDS011;60030;52.274;8.040;2023-05-09T06:03:02;11.53;;;9.57;;
71366;SDS011;60030;52.274;8.040;2023-05-09T06:05:49;17.80;;;9.13;;
71366;SDS011;60030;52.274;8.040;2023-05-09T06:08:17;11.97;;;9.73;;
71366;SDS011;60030;52.274;8.040;2023-05-09T06:10:44;12.03;;;9.10;;
71366;SDS011;60030;52.274;8.040;2023-05-09T06:13:11;14.53;;;10.53;;
71366;SDS011;60030;52.274;8.040;2023-05-09T06:15:43;11.77;;;9.63;;
71366;SDS011;60030;52.274;8.040;2023-05-09T06:18:11;12.93;;;9.40;;
71366;SDS011;60030;52.274;8.040;2023-05-09T06:20:39;13.53;;;10.03;;
71366;SDS011;60030;52.274;8.040;2023-05-09T06:23:07;15.13;;;11.60;;
71366;SDS011;60030;52.274;8.040;2023-05-09T06:25:34;13.50;;;10.87;;
71366;SDS011;60030;52.274;8.040;2023-05-09T06:28:02;13.60;;;10.73;;
71366;SDS011;60030;52.274;8.040;2023-05-09T06:30:29;13.80;;;10.20;;
71366;SDS011;60030;52.274;8.040;2023-05-09T06:32:57;13.17;;;10.93;;
71366;SDS011;60030;52.274;8.040;2023-05-09T06:35:25;12.63;;;10.17;;
71366;SDS011;60030;52.274;8.040;2023-05-09T06:37:53;14.53;;;10.70;;
71366;SDS011;60030;52.274;8.040;2023-05-09T06:40:20;15.23;;;11.87;;
71366;SDS011;60030;52.274;8.040;2023-05-09T06:42:48;15.63;;;11.00;;
71366;SDS011;60030;52.274;8.040;2023-05-09T06:45:15;14.00;;;11.17;;
71366;SDS011;60030;52.274;8.040;2023-05-09T06:47:43;13.20;;;11.00;;
71366;SDS011;60030;52.274;8.040;2023-05-09T06:50:10;14.00;;;10.47;;
71366;SDS011;60030;52.274;8.040;2023-05-09T06:52:39;14.47;;;11.40;;
71366;SDS011;60030;52.274;8.040;2023-05-09T06:55:07;14.68;;;11.18;;
71366;SDS011;60030;52.274;8.040;2023-05-09T06:57:35;14.90;;;11.70;;
71366;SDS011;60030;52.274;8.040;2023-05-09T07:00:04;13.73;;;10.90;;
71366;SDS011;60030;52.274;8.040;2023-05-09T07:02:32;15.00;;;12.10;;
71366;SDS011;60030;52.274;8.040;2023-05-09T07:05:00;13.83;;;11.33;;
71366;SDS011;60030;52.274;8.040;2023-05-09T07:07:27;15.33;;;12.53;;
71366;SDS011;60030;52.274;8.040;2023-05-09T07:09:56;16.10;;;12.13;;
71366;SDS011;60030;52.274;8.040;2023-05-09T07:12:25;13.90;;;11.53;;
71366;SDS011;60030;52.274;8.040;2023-05-09T07:14:52;15.65;;;11.88;;
71366;SDS011;60030;52.274;8.040;2023-05-09T07:17:20;13.55;;;11.40;;
71366;SDS011;60030;52.274;8.040;2023-05-09T07:19:48;14.77;;;12.30;;
71366;SDS011;60030;52.274;8.040;2023-05-09T07:22:16;13.98;;;11.20;;
71366;SDS011;60030;52.274;8.040;2023-05-09T07:24:44;15.70;;;11.23;;
71366;SDS011;60030;52.274;8.040;2023-05-09T07:27:12;16.13;;;12.10;;
71366;SDS011;60030;52.274;8.040;2023-05-09T07:29:40;13.98;;;11.65;;
71366;SDS011;60030;52.274;8.040;2023-05-09T07:32:08;13.85;;;11.50;;
71366;SDS011;60030;52.274;8.040;2023-05-09T07:34:35;14.75;;;11.70;;
71366;SDS011;60030;52.274;8.040;2023-05-09T07:37:02;16.25;;;12.13;;
71366;SDS011;60030;52.274;8.040;2023-05-09T07:39:30;20.65;;;14.23;;
71366;SDS011;60030;52.274;8.040;2023-05-09T07:41:57;15.70;;;12.25;;
71366;SDS011;60030;52.274;8.040;2023-05-09T07:44:26;15.63;;;12.73;;
71366;SDS011;60030;52.274;8.040;2023-05-09T07:46:55;13.50;;;11.35;;
71366;SDS011;60030;52.274;8.040;2023-05-09T07:49:23;14.10;;;11.80;;
71366;SDS011;60030;52.274;8.040;2023-05-09T07:51:51;15.02;;;12.52;;
71366;SDS011;60030;52.274;8.040;2023-05-09T07:54:19;15.73;;;11.80;;
71366;SDS011;60030;52.274;8.040;2023-05-09T07:56:46;14.52;;;11.95;;
71366;SDS011;60030;52.274;8.040;2023-05-09T07:59:14;17.55;;;12.68;;
71366;SDS011;60030;52.274;8.040;2023-05-09T08:01:42;17.40;;;12.30;;
71366;SDS011;60030;52.274;8.040;2023-05-09T08:04:10;16.33;;;12.68;;
71366;SDS011;60030;52.274;8.040;2023-05-09T08:06:39;17.08;;;12.75;;
71366;SDS011;60030;52.274;8.040;2023-05-09T08:09:06;15.25;;;12.35;;
71366;SDS011;60030;52.274;8.040;2023-05-09T08:11:35;17.95;;;12.23;;
71366;SDS011;60030;52.274;8.040;2023-05-09T08:14:03;15.20;;;13.15;;
71366;SDS011;60030;52.274;8.040;2023-05-09T08:16:30;17.67;;;14.15;;
71366;SDS011;60030;52.274;8.040;2023-05-09T08:19:00;16.58;;;13.07;;
71366;SDS011;60030;52.274;8.040;2023-05-09T08:21:28;19.02;;;15.88;;
71366;SDS011;60030;52.274;8.040;2023-05-09T08:23:56;17.73;;;15.73;;
71366;SDS011;60030;52.274;8.040;2023-05-09T08:26:23;20.50;;;16.63;;
71366;SDS011;60030;52.274;8.040;2023-05-09T08:28:51;16.77;;;13.63;;
71366;SDS011;60030;52.274;8.040;2023-05-09T08:31:19;15.77;;;13.07;;
71366;SDS011;60030;52.274;8.040;2023-05-09T08:33:46;18.10;;;13.55;;
71366;SDS011;60030;52.274;8.040;2023-05-09T08:36:16;16.73;;;13.23;;
71366;SDS011;60030;52.274;8.040;2023-05-09T08:38:44;16.60;;;13.30;;
71366;SDS011;60030;52.274;8.040;2023-05-09T08:41:11;15.07;;;12.13;;
71366;SDS011;60030;52.274;8.040;2023-05-09T08:43:39;18.23;;;13.40;;
71366;SDS011;60030;52.274;8.040;2023-05-09T08:46:07;20.40;;;14.75;;
71366;SDS011;60030;52.274;8.040;2023-05-09T08:48:35;16.85;;;14.05;;
71366;SDS011;60030;52.274;8.040;2023-05-09T08:51:06;16.73;;;13.38;;
71366;SDS011;60030;52.274;8.040;2023-05-09T08:53:36;15.50;;;12.57;;
71366;SDS011;60030;52.274;8.040;2023-05-09T08:56:04;19.02;;;13.75;;
71366;SDS011;60030;52.274;8.040;2023-05-09T08:58:32;15.38;;;12.90;;
71366;SDS011;60030;52.274;8.040;2023-05-09T09:01:00;17.83;;;13.77;;
71366;SDS011;60030;52.274;8.040;2023-05-09T09:03:31;18.92;;;14.88;;
71366;SDS011;60030;52.274;8.040;2023-05-09T09:05:58;18.33;;;14.75;;
71366;SDS011;60030;52.274;8.040;2023-05-09T09:08:26;17.33;;;14.15;;
71366;SDS011;60030;52.274;8.040;2023-05-09T09:10:57;17.40;;;13.18;;
71366;SDS011;60030;52.274;8.040;2023-05-09T09:13:25;15.80;;;13.45;;
71366;SDS011;60030;52.274;8.040;2023-05-09T09:15:53;18.20;;;13.93;;
71366;SDS011;60030;52.274;8.040;2023-05-09T09:18:25;17.35;;;14.70;;
71366;SDS011;60030;52.274;8.040;2023-05-09T09:20:56;16.73;;;13.93;;
71366;SDS011;60030;52.274;8.040;2023-05-09T09:23:25;17.65;;;14.27;;
71366;SDS011;60030;52.274;8.040;2023-05-09T09:25:57;17.67;;;13.93;;
71366;SDS011;60030;52.274;8.040;2023-05-09T09:28:26;16.77;;;13.73;;
71366;SDS011;60030;52.274;8.040;2023-05-09T09:30:54;17.55;;;15.07;;
71366;SDS011;60030;52.274;8.040;2023-05-09T09:33:21;16.63;;;13.45;;
71366;SDS011;60030;52.274;8.040;2023-05-09T09:35:50;16.92;;;13.43;;
71366;SDS011;60030;52.274;8.040;2023-05-09T09:38:19;17.15;;;13.52;;
71366;SDS011;60030;52.274;8.040;2023-05-09T09:40:47;16.55;;;13.23;;
71366;SDS011;60030;52.274;8.040;2023-05-09T09:43:19;16.90;;;14.07;;
71366;SDS011;60030;52.274;8.040;2023-05-09T09:45:52;15.77;;;13.32;;
71366;SDS011;60030;52.274;8.040;2023-05-09T09:48:22;16.08;;;13.10;;
71366;SDS011;60030;52.274;8.040;2023-05-09T09:50:50;15.75;;;12.23;;
71366;SDS011;60030;52.274;8.040;2023-05-09T09:53:19;17.02;;;14.20;;
71366;SDS011;60030;52.274;8.040;2023-05-09T09:55:48;17.58;;;14.40;;
71366;SDS011;60030;52.274;8.040;2023-05-09T09:58:16;18.42;;;14.38;;
71366;SDS011;60030;52.274;8.040;2023-05-09T10:00:47;17.90;;;13.05;;
71366;SDS011;60030;52.274;8.040;2023-05-09T10:03:33;17.58;;;13.95;;
71366;SDS011;60030;52.274;8.040;2023-05-09T10:06:01;17.60;;;13.23;;
71366;SDS011;60030;52.274;8.040;2023-05-09T10:08:29;16.60;;;13.85;;
71366;SDS011;60030;52.274;8.040;2023-05-09T10:10:56;14.85;;;12.43;;
71366;SDS011;60030;52.274;8.040;2023-05-09T10:13:26;16.90;;;13.02;;
71366;SDS011;60030;52.274;8.040;2023-05-09T10:15:55;18.08;;;13.05;;
71366;SDS011;60030;52.274;8.040;2023-05-09T10:18:26;15.05;;;13.50;;
71366;SDS011;60030;52.274;8.040;2023-05-09T10:20:55;14.98;;;12.40;;
71366;SDS011;60030;52.274;8.040;2023-05-09T10:23:28;16.75;;;12.88;;
71366;SDS011;60030;52.274;8.040;2023-05-09T10:25:57;16.05;;;12.82;;
71366;SDS011;60030;52.274;8.040;2023-05-09T10:28:31;14.85;;;12.00;;
71366;SDS011;60030;52.274;8.040;2023-05-09T10:31:06;14.40;;;11.73;;
71366;SDS011;60030;52.274;8.040;2023-05-09T10:33:40;12.70;;;11.25;;
71366;SDS011;60030;52.274;8.040;2023-05-09T10:36:14;13.65;;;11.65;;
71366;SDS011;60030;52.274;8.040;2023-05-09T10:38:43;14.02;;;11.60;;
71366;SDS011;60030;52.274;8.040;2023-05-09T10:41:12;14.40;;;11.55;;
71366;SDS011;60030;52.274;8.040;2023-05-09T10:43:40;14.45;;;12.27;;
71366;SDS011;60030;52.274;8.040;2023-05-09T10:46:11;15.15;;;11.63;;
71366;SDS011;60030;52.274;8.040;2023-05-09T10:48:39;13.82;;;11.65;;
71366;SDS011;60030;52.274;8.040;2023-05-09T10:51:07;13.25;;;11.85;;
71366;SDS011;60030;52.274;8.040;2023-05-09T10:53:41;13.73;;;11.65;;
71366;SDS011;60030;52.274;8.040;2023-05-09T10:56:21;17.70;;;11.10;;
71366;SDS011;60030;52.274;8.040;2023-05-09T10:58:49;15.15;;;11.82;;
71366;SDS011;60030;52.274;8.040;2023-05-09T11:01:28;13.25;;;11.45;;
71366;SDS011;60030;52.274;8.040;2023-05-09T11:03:59;15.07;;;12.63;;
71366;SDS011;60030;52.274;8.040;2023-05-09T11:06:45;13.35;;;11.18;;
71366;SDS011;60030;52.274;8.040;2023-05-09T11:09:23;16.50;;;12.35;;
71366;SDS011;60030;52.274;8.040;2023-05-09T11:11:52;16.83;;;12.25;;
71366;SDS011;60030;52.274;8.040;2023-05-09T11:14:30;15.50;;;11.05;;
71366;SDS011;60030;52.274;8.040;2023-05-09T11:17:01;13.10;;;10.85;;
71366;SDS011;60030;52.274;8.040;2023-05-09T11:19:34;13.93;;;11.70;;
71366;SDS011;60030;52.274;8.040;2023-05-09T11:22:12;17.25;;;11.52;;
71366;SDS011;60030;52.274;8.040;2023-05-09T11:24:44;13.35;;;11.73;;
71366;SDS011;60030;52.274;8.040;2023-05-09T11:27:13;14.75;;;12.55;;
71366;SDS011;60030;52.274;8.040;2023-05-09T11:29:45;12.55;;;11.23;;
71366;SDS011;60030;52.274;8.040;2023-05-09T11:32:18;16.08;;;12.93;;
71366;SDS011;60030;52.274;8.040;2023-05-09T11:34:46;15.48;;;12.57;;
71366;SDS011;60030;52.274;8.040;2023-05-09T11:37:15;14.35;;;11.40;;
71366;SDS011;60030;52.274;8.040;2023-05-09T11:39:56;14.65;;;11.65;;
71366;SDS011;60030;52.274;8.040;2023-05-09T11:42:26;12.95;;;11.63;;
71366;SDS011;60030;52.274;8.040;2023-05-09T11:44:55;14.13;;;11.85;;
71366;SDS011;60030;52.274;8.040;2023-05-09T11:47:25;15.85;;;12.35;;
71366;SDS011;60030;52.274;8.040;2023-05-09T11:49:55;15.35;;;12.07;;
71366;SDS011;60030;52.274;8.040;2023-05-09T11:52:22;14.73;;;12.50;;
71366;SDS011;60030;52.274;8.040;2023-05-09T11:54:50;14.43;;;12.00;;
71366;SDS011;60030;52.274;8.040;2023-05-09T11:57:19;14.93;;;11.55;;
71366;SDS011;60030;52.274;8.040;2023-05-09T11:59:46;14.48;;;11.50;;
71366;SDS011;60030;52.274;8.040;2023-05-09T12:02:14;17.83;;;12.38;;
71366;SDS011;60030;52.274;8.040;2023-05-09T12:04:43;14.13;;;12.55;;
71366;SDS011;60030;52.274;8.040;2023-05-09T12:07:10;14.80;;;11.48;;
71366;SDS011;60030;52.274;8.040;2023-05-09T12:09:39;14.35;;;12.00;;
71366;SDS011;60030;52.274;8.040;2023-05-09T12:12:08;14.98;;;12.30;;
71366;SDS011;60030;52.274;8.040;2023-05-09T12:14:39;16.70;;;12.48;;
71366;SDS011;60030;52.274;8.040;2023-05-09T12:17:08;22.10;;;18.42;;
71366;SDS011;60030;52.274;8.040;2023-05-09T12:19:36;18.63;;;14.25;;
71366;SDS011;60030;52.274;8.040;2023-05-09T12:22:04;21.83;;;16.65;;
71366;SDS011;60030;52.274;8.040;2023-05-09T12:24:33;20.25;;;16.15;;
71366;SDS011;60030;52.274;8.040;2023-05-09T12:27:02;19.75;;;15.93;;
71366;SDS011;60030;52.274;8.040;2023-05-09T12:29:32;21.02;;;16.25;;
71366;SDS011;60030;52.274;8.040;2023-05-09T12:31:59;19.58;;;16.98;;
71366;SDS011;60030;52.274;8.040;2023-05-09T12:34:27;18.92;;;15.13;;
71366;SDS011;60030;52.274;8.040;2023-05-09T12:36:55;18.05;;;13.90;;
71366;SDS011;60030;52.274;8.040;2023-05-09T12:39:25;17.85;;;15.18;;
71366;SDS011;60030;52.274;8.040;2023-05-09T12:41:53;17.33;;;13.25;;
71366;SDS011;60030;52.274;8.040;2023-05-09T12:44:24;14.82;;;11.85;;
71366;SDS011;60030;52.274;8.040;2023-05-09T12:46:54;12.13;;;10.82;;
71366;SDS011;60030;52.274;8.040;2023-05-09T12:49:22;11.90;;;10.43;;
71366;SDS011;60030;52.274;8.040;2023-05-09T12:51:50;11.57;;;8.98;;
71366;SDS011;60030;52.274;8.040;2023-05-09T12:54:19;9.90;;;8.90;;
71366;SDS011;60030;52.274;8.040;2023-05-09T12:56:49;9.55;;;8.52;;
71366;SDS011;60030;52.274;8.040;2023-05-09T12:59:21;8.85;;;7.78;;
71366;SDS011;60030;52.274;8.040;2023-05-09T13:01:52;8.95;;;7.32;;
71366;SDS011;60030;52.274;8.040;2023-05-09T13:04:22;10.48;;;8.35;;
71366;SDS011;60030;52.274;8.040;2023-05-09T13:06:51;11.05;;;8.57;;
71366;SDS011;60030;52.274;8.040;2023-05-09T13:09:20;9.43;;;7.63;;
71366;SDS011;60030;52.274;8.040;2023-05-09T13:11:49;9.98;;;7.93;;
71366;SDS011;60030;52.274;8.040;2023-05-09T13:14:17;8.93;;;7.95;;
71366;SDS011;60030;52.274;8.040;2023-05-09T13:16:45;8.63;;;7.57;;
71366;SDS011;60030;52.274;8.040;2023-05-09T13:19:13;9.48;;;7.97;;
71366;SDS011;60030;52.274;8.040;2023-05-09T13:21:40;8.27;;;7.22;;
71366;SDS011;60030;52.274;8.040;2023-05-09T13:24:08;8.95;;;7.10;;
71366;SDS011;60030;52.274;8.040;2023-05-09T13:26:36;8.38;;;7.00;;
71366;SDS011;60030;52.274;8.040;2023-05-09T13:29:05;8.85;;;7.20;;
71366;SDS011;60030;52.274;8.040;2023-05-09T13:31:32;8.82;;;7.32;;
71366;SDS011;60030;52.274;8.040;2023-05-09T13:34:03;9.65;;;7.10;;
71366;SDS011;60030;52.274;8.040;2023-05-09T13:36:31;9.45;;;6.95;;
71366;SDS011;60030;52.274;8.040;2023-05-09T13:38:59;8.05;;;7.22;;
71366;SDS011;60030;52.274;8.040;2023-05-09T13:41:26;10.63;;;7.60;;
71366;SDS011;60030;52.274;8.040;2023-05-09T13:43:57;13.73;;;10.02;;
71366;SDS011;60030;52.274;8.040;2023-05-09T13:46:30;20.25;;;15.77;;
71366;SDS011;60030;52.274;8.040;2023-05-09T13:48:58;19.77;;;14.93;;
71366;SDS011;60030;52.274;8.040;2023-05-09T13:51:25;23.23;;;19.50;;
71366;SDS011;60030;52.274;8.040;2023-05-09T13:53:54;14.07;;;10.85;;
71366;SDS011;60030;52.274;8.040;2023-05-09T13:56:22;12.32;;;10.73;;
71366;SDS011;60030;52.274;8.040;2023-05-09T13:58:51;18.20;;;10.88;;
71366;SDS011;60030;52.274;8.040;2023-05-09T14:01:19;12.40;;;11.05;;
71366;SDS011;60030;52.274;8.040;2023-05-09T14:03:48;12.77;;;11.27;;
71366;SDS011;60030;52.274;8.040;2023-05-09T14:06:16;14.32;;;11.25;;
71366;SDS011;60030;52.274;8.040;2023-05-09T14:08:44;13.35;;;11.95;;
71366;SDS011;60030;52.274;8.040;2023-05-09T14:11:11;16.77;;;12.02;;
71366;SDS011;60030;52.274;8.040;2023-05-09T14:13:38;18.52;;;11.85;;
71366;SDS011;60030;52.274;8.040;2023-05-09T14:16:06;17.10;;;11.63;;
71366;SDS011;60030;52.274;8.040;2023-05-09T14:18:33;13.70;;;10.98;;
71366;SDS011;60030;52.274;8.040;2023-05-09T14:21:02;13.30;;;11.52;;
71366;SDS011;60030;52.274;8.040;2023-05-09T14:23:35;23.13;;;18.13;;
71366;SDS011;60030;52.274;8.040;2023-05-09T14:26:03;20.48;;;15.43;;
71366;SDS011;60030;52.274;8.040;2023-05-09T14:28:30;18.90;;;14.05;;
71366;SDS011;60030;52.274;8.040;2023-05-09T14:30:58;21.73;;;18.48;;
71366;SDS011;60030;52.274;8.040;2023-05-09T14:33:27;15.85;;;13.05;;
71366;SDS011;60030;52.274;8.040;2023-05-09T14:35:56;12.93;;;10.23;;
71366;SDS011;60030;52.274;8.040;2023-05-09T14:38:27;14.68;;;11.52;;
71366;SDS011;60030;52.274;8.040;2023-05-09T14:40:57;13.65;;;10.85;;
71366;SDS011;60030;52.274;8.040;2023-05-09T14:43:26;13.38;;;11.73;;
71366;SDS011;60030;52.274;8.040;2023-05-09T14:45:54;14.05;;;11.02;;